Chiang Mai, Thailand
Current Conditions -  °F | °C
As of 3:00 PM on Saturday 20 Dec 2014 (Local Time) from VTCC Reporting Station
Few Clouds Few Clouds  
Wind Chill: 82°   Ceiling: Unl
Heat Index: 82°   Visibility: 6mi
Dew Point: 52°   Wind: 5mph
Humidity: 35%   Direction: 160°SSE
Pressure: 29.97"   Gusts: NA
Location:  18.8°N, 98.98°E
Report Text: VTCC 200800Z 16004KT 9999 FEW040 28/11 Q1015 A2997 NOSIG
Loading
Personal Weather Stations






























Interactive Weather Map New forecast layout! Learn more

10-Day Weather Forecast

Advertisements
Track Severe Weather on mobile